sensor_id;sensor_type;location;lat;lon;timestamp;pressure;altitude;pressure_sealevel;temperature;humidity
70458;BME280;57919;56.194;95.716;2023-11-18T00:07:34;99450.78;;;0.18;80.88
70458;BME280;57919;56.194;95.716;2023-11-18T00:17:37;99463.06;;;0.21;81.24
70458;BME280;57919;56.194;95.716;2023-11-18T00:27:40;99458.75;;;0.18;81.13
70458;BME280;57919;56.194;95.716;2023-11-18T00:37:42;99441.13;;;0.16;80.85
70458;BME280;57919;56.194;95.716;2023-11-18T00:47:44;99455.91;;;0.23;80.63
70458;BME280;57919;56.194;95.716;2023-11-18T00:57:46;99455.97;;;0.21;80.57
70458;BME280;57919;56.194;95.716;2023-11-18T01:07:48;99461.59;;;0.14;79.88
70458;BME280;57919;56.194;95.716;2023-11-18T01:17:51;99452.94;;;0.09;80.33
70458;BME280;57919;56.194;95.716;2023-11-18T01:27:53;99453.41;;;-0.02;80.46
70458;BME280;57919;56.194;95.716;2023-11-18T01:37:55;99463.66;;;0.07;80.35
70458;BME280;57919;56.194;95.716;2023-11-18T01:47:57;99466.28;;;-0.13;80.27
70458;BME280;57919;56.194;95.716;2023-11-18T01:58:00;99455.59;;;-0.34;80.76
70458;BME280;57919;56.194;95.716;2023-11-18T02:08:09;99453.53;;;-0.49;81.31
70458;BME280;57919;56.194;95.716;2023-11-18T02:18:12;99441.66;;;-0.62;81.46
70458;BME280;57919;56.194;95.716;2023-11-18T02:28:35;99453.69;;;-0.75;81.63
70458;BME280;57919;56.194;95.716;2023-11-18T02:38:42;99450.59;;;-0.86;81.96
70458;BME280;57919;56.194;95.716;2023-11-18T02:48:47;99451.16;;;-0.78;82.23
70458;BME280;57919;56.194;95.716;2023-11-18T02:58:49;99445.88;;;-0.56;82.02
70458;BME280;57919;56.194;95.716;2023-11-18T03:08:51;99439.94;;;-0.41;81.38
70458;BME280;57919;56.194;95.716;2023-11-18T03:18:55;99434.44;;;-0.37;80.86
70458;BME280;57919;56.194;95.716;2023-11-18T03:28:57;99411.69;;;-0.22;81.22
70458;BME280;57919;56.194;95.716;2023-11-18T03:38:59;99406.69;;;0.13;80.72
70458;BME280;57919;56.194;95.716;2023-11-18T03:49:03;99421.25;;;0.24;79.49
70458;BME280;57919;56.194;95.716;2023-11-18T03:59:05;99409.63;;;0.27;80.19
70458;BME280;57919;56.194;95.716;2023-11-18T04:09:07;99394.19;;;0.74;79.70
70458;BME280;57919;56.194;95.716;2023-11-18T04:19:11;99387.38;;;1.06;78.89
70458;BME280;57919;56.194;95.716;2023-11-18T04:29:13;99369.00;;;1.19;78.66
70458;BME280;57919;56.194;95.716;2023-11-18T04:39:16;99356.50;;;1.57;78.71
70458;BME280;57919;56.194;95.716;2023-11-18T04:49:19;99331.88;;;2.21;76.82
70458;BME280;57919;56.194;95.716;2023-11-18T04:59:21;99308.81;;;2.03;77.18
70458;BME280;57919;56.194;95.716;2023-11-18T05:09:23;99292.84;;;2.36;76.76
70458;BME280;57919;56.194;95.716;2023-11-18T05:19:25;99277.03;;;2.64;76.19
70458;BME280;57919;56.194;95.716;2023-11-18T05:29:28;99271.97;;;2.91;75.69
70458;BME280;57919;56.194;95.716;2023-11-18T05:39:30;99249.84;;;4.09;75.55
70458;BME280;57919;56.194;95.716;2023-11-18T05:49:35;99239.25;;;4.50;70.79
70458;BME280;57919;56.194;95.716;2023-11-18T05:59:37;99217.44;;;3.85;73.02
70458;BME280;57919;56.194;95.716;2023-11-18T06:09:44;99220.84;;;3.43;74.67
70458;BME280;57919;56.194;95.716;2023-11-18T06:19:48;99198.16;;;3.50;75.10
70458;BME280;57919;56.194;95.716;2023-11-18T06:29:50;99178.66;;;3.48;75.41
70458;BME280;57919;56.194;95.716;2023-11-18T06:39:52;99167.63;;;3.82;74.82
70458;BME280;57919;56.194;95.716;2023-11-18T06:49:54;99153.88;;;4.17;72.24
70458;BME280;57919;56.194;95.716;2023-11-18T06:59:57;99144.31;;;4.13;71.62
70458;BME280;57919;56.194;95.716;2023-11-18T07:09:59;99150.91;;;4.21;72.26
70458;BME280;57919;56.194;95.716;2023-11-18T07:20:01;99135.03;;;4.18;71.64
70458;BME280;57919;56.194;95.716;2023-11-18T07:30:05;99125.06;;;4.35;71.43
70458;BME280;57919;56.194;95.716;2023-11-18T07:40:09;99128.34;;;4.11;71.04
70458;BME280;57919;56.194;95.716;2023-11-18T07:50:13;99101.97;;;4.05;70.29
70458;BME280;57919;56.194;95.716;2023-11-18T08:00:16;99098.16;;;3.95;70.52
70458;BME280;57919;56.194;95.716;2023-11-18T08:10:18;99083.16;;;3.93;70.10
70458;BME280;57919;56.194;95.716;2023-11-18T08:20:20;99072.19;;;3.83;69.95
70458;BME280;57919;56.194;95.716;2023-11-18T08:30:26;99044.09;;;3.76;69.75
70458;BME280;57919;56.194;95.716;2023-11-18T08:40:28;99032.75;;;3.58;69.31
70458;BME280;57919;56.194;95.716;2023-11-18T08:50:31;99011.44;;;3.42;68.68
70458;BME280;57919;56.194;95.716;2023-11-18T09:00:33;99015.44;;;3.21;69.07
70458;BME280;57919;56.194;95.716;2023-11-18T09:10:48;98994.25;;;3.04;69.21
70458;BME280;57919;56.194;95.716;2023-11-18T09:20:51;98990.78;;;2.87;69.67
70458;BME280;57919;56.194;95.716;2023-11-18T09:30:57;98973.47;;;2.65;69.87
70458;BME280;57919;56.194;95.716;2023-11-18T09:41:00;98973.66;;;2.62;70.07
70458;BME280;57919;56.194;95.716;2023-11-18T09:51:04;98955.91;;;2.61;70.10
70458;BME280;57919;56.194;95.716;2023-11-18T10:01:08;98926.47;;;2.62;70.02
70458;BME280;57919;56.194;95.716;2023-11-18T10:11:14;98930.66;;;2.66;70.10
70458;BME280;57919;56.194;95.716;2023-11-18T10:21:34;98914.63;;;2.66;71.11
70458;BME280;57919;56.194;95.716;2023-11-18T10:31:41;98872.94;;;2.49;72.05
70458;BME280;57919;56.194;95.716;2023-11-18T10:41:46;98868.25;;;2.39;72.39
70458;BME280;57919;56.194;95.716;2023-11-18T10:51:51;98854.63;;;3.00;73.04
70458;BME280;57919;56.194;95.716;2023-11-18T11:01:53;98817.72;;;3.34;70.48
70458;BME280;57919;56.194;95.716;2023-11-18T11:12:00;98799.91;;;2.65;72.96
70458;BME280;57919;56.194;95.716;2023-11-18T11:22:09;98786.09;;;2.30;74.25
70458;BME280;57919;56.194;95.716;2023-11-18T11:42:26;98755.19;;;2.11;75.09
70458;BME280;57919;56.194;95.716;2023-11-18T11:52:33;98734.63;;;2.13;75.59
70458;BME280;57919;56.194;95.716;2023-11-18T12:02:39;98711.47;;;2.14;74.69
70458;BME280;57919;56.194;95.716;2023-11-18T12:12:42;98700.78;;;2.14;74.35
70458;BME280;57919;56.194;95.716;2023-11-18T12:23:03;98675.06;;;2.13;74.14
70458;BME280;57919;56.194;95.716;2023-11-18T12:33:19;98632.28;;;2.14;74.29
70458;BME280;57919;56.194;95.716;2023-11-18T12:54:11;98576.38;;;2.13;74.26
70458;BME280;57919;56.194;95.716;2023-11-18T13:04:14;98546.16;;;2.12;74.24
70458;BME280;57919;56.194;95.716;2023-11-18T13:14:16;98517.41;;;2.03;74.57
70458;BME280;57919;56.194;95.716;2023-11-18T13:24:20;98499.59;;;2.04;74.92
70458;BME280;57919;56.194;95.716;2023-11-18T13:34:23;98460.25;;;2.07;75.23
70458;BME280;57919;56.194;95.716;2023-11-18T13:44:37;98421.59;;;2.00;75.09
70458;BME280;57919;56.194;95.716;2023-11-18T13:54:39;98376.75;;;1.92;75.63
70458;BME280;57919;56.194;95.716;2023-11-18T14:04:44;98364.28;;;1.93;76.30
70458;BME280;57919;56.194;95.716;2023-11-18T14:14:48;98327.50;;;1.98;76.69
70458;BME280;57919;56.194;95.716;2023-11-18T14:24:51;98308.31;;;2.06;76.60
70458;BME280;57919;56.194;95.716;2023-11-18T14:34:55;98263.06;;;2.04;76.73
70458;BME280;57919;56.194;95.716;2023-11-18T14:44:58;98264.34;;;2.11;76.42
70458;BME280;57919;56.194;95.716;2023-11-18T14:55:00;98220.19;;;2.07;77.41
70458;BME280;57919;56.194;95.716;2023-11-18T15:05:02;98174.41;;;2.01;78.22
70458;BME280;57919;56.194;95.716;2023-11-18T15:15:08;98163.00;;;1.99;78.86
70458;BME280;57919;56.194;95.716;2023-11-18T15:25:18;98149.66;;;1.99;78.94
70458;BME280;57919;56.194;95.716;2023-11-18T15:35:20;98108.19;;;1.94;79.56
70458;BME280;57919;56.194;95.716;2023-11-18T15:45:23;98066.25;;;1.97;79.42
70458;BME280;57919;56.194;95.716;2023-11-18T15:55:30;98045.78;;;1.97;79.64
70458;BME280;57919;56.194;95.716;2023-11-18T16:05:32;98002.75;;;2.02;80.30
70458;BME280;57919;56.194;95.716;2023-11-18T16:15:35;97973.09;;;2.06;80.16
70458;BME280;57919;56.194;95.716;2023-11-18T16:25:37;97939.50;;;2.04;80.82
70458;BME280;57919;56.194;95.716;2023-11-18T16:35:39;97910.38;;;2.01;81.13
70458;BME280;57919;56.194;95.716;2023-11-18T16:45:41;97904.81;;;2.04;81.42
70458;BME280;57919;56.194;95.716;2023-11-18T16:55:44;97847.00;;;2.04;82.51
70458;BME280;57919;56.194;95.716;2023-11-18T17:05:46;97803.47;;;2.04;82.30
70458;BME280;57919;56.194;95.716;2023-11-18T17:15:48;97759.81;;;1.93;82.98
70458;BME280;57919;56.194;95.716;2023-11-18T17:25:51;97729.03;;;1.89;83.82
70458;BME280;57919;56.194;95.716;2023-11-18T17:35:54;97674.59;;;1.81;84.89
70458;BME280;57919;56.194;95.716;2023-11-18T17:45:56;97648.06;;;1.90;85.18
70458;BME280;57919;56.194;95.716;2023-11-18T17:55:58;97633.78;;;1.91;84.97
70458;BME280;57919;56.194;95.716;2023-11-18T18:06:00;97596.56;;;1.90;84.86
70458;BME280;57919;56.194;95.716;2023-11-18T18:16:03;97578.03;;;2.00;84.89
70458;BME280;57919;56.194;95.716;2023-11-18T18:26:06;97542.88;;;1.94;84.95
70458;BME280;57919;56.194;95.716;2023-11-18T18:36:09;97520.44;;;1.97;84.83
70458;BME280;57919;56.194;95.716;2023-11-18T18:46:12;97473.69;;;1.93;84.88
70458;BME280;57919;56.194;95.716;2023-11-18T18:56:14;97444.72;;;1.88;85.52
70458;BME280;57919;56.194;95.716;2023-11-18T19:06:16;97417.78;;;2.03;86.91
70458;BME280;57919;56.194;95.716;2023-11-18T19:16:18;97385.09;;;2.21;87.30
70458;BME280;57919;56.194;95.716;2023-11-18T19:26:20;97338.84;;;2.32;87.33
70458;BME280;57919;56.194;95.716;2023-11-18T19:36:22;97320.09;;;2.43;87.36
70458;BME280;57919;56.194;95.716;2023-11-18T19:46:24;97293.47;;;2.53;87.41
70458;BME280;57919;56.194;95.716;2023-11-18T19:56:27;97251.91;;;2.60;87.47
70458;BME280;57919;56.194;95.716;2023-11-18T20:06:30;97222.44;;;2.71;86.31
70458;BME280;57919;56.194;95.716;2023-11-18T20:16:32;97209.69;;;2.75;86.27
70458;BME280;57919;56.194;95.716;2023-11-18T20:26:38;97184.28;;;2.90;85.97
70458;BME280;57919;56.194;95.716;2023-11-18T20:36:40;97149.88;;;3.16;85.85
70458;BME280;57919;56.194;95.716;2023-11-18T20:46:43;97125.66;;;3.37;84.81
70458;BME280;57919;56.194;95.716;2023-11-18T20:56:46;97110.88;;;3.62;84.62
70458;BME280;57919;56.194;95.716;2023-11-18T21:06:48;97068.88;;;3.81;83.11
70458;BME280;57919;56.194;95.716;2023-11-18T21:16:50;97053.28;;;4.04;82.94
70458;BME280;57919;56.194;95.716;2023-11-18T21:26:52;97052.56;;;4.12;81.90
70458;BME280;57919;56.194;95.716;2023-11-18T21:36:54;97026.53;;;4.32;81.62
70458;BME280;57919;56.194;95.716;2023-11-18T21:46:56;96987.97;;;4.25;81.38
70458;BME280;57919;56.194;95.716;2023-11-18T21:56:59;96959.00;;;4.38;81.58
70458;BME280;57919;56.194;95.716;2023-11-18T22:07:01;96913.97;;;4.51;80.58
70458;BME280;57919;56.194;95.716;2023-11-18T22:17:03;96937.88;;;4.70;80.34
70458;BME280;57919;56.194;95.716;2023-11-18T22:27:05;96915.97;;;4.93;79.69
70458;BME280;57919;56.194;95.716;2023-11-18T22:37:11;96893.00;;;5.16;78.53
70458;BME280;57919;56.194;95.716;2023-11-18T22:47:13;96864.38;;;5.59;77.23
70458;BME280;57919;56.194;95.716;2023-11-18T22:57:16;96833.63;;;5.87;75.98
70458;BME280;57919;56.194;95.716;2023-11-18T23:07:18;96827.31;;;6.21;74.69
70458;BME280;57919;56.194;95.716;2023-11-18T23:17:20;96840.06;;;6.35;73.62
70458;BME280;57919;56.194;95.716;2023-11-18T23:27:23;96833.84;;;6.51;74.46
70458;BME280;57919;56.194;95.716;2023-11-18T23:37:25;96812.69;;;6.64;73.85
70458;BME280;57919;56.194;95.716;2023-11-18T23:47:27;96819.56;;;6.74;73.09
70458;BME280;57919;56.194;95.716;2023-11-18T23:57:29;96843.44;;;6.53;74.17
